Time;durP1;ratioP1;P1;durP2;ratioP2;P2;SDS_P1;SDS_P2;PMS_P1;PMS_P2;Temp;Humidity;BMP_temperature;BMP_pressure;BME280_temperature;BME280_humidity;BME280_pressure;Samples;Min_cycle;Max_cycle;Signal;HPM_P1;HPM_P2
2023/08/31 00:01:12;;;;;;;12.38;11.07;;;14.00;99.90;;;;;;4991401;28;20026;-85
2023/08/31 00:03:38;;;;;;;11.57;9.93;;;14.00;99.90;;;;;;4997713;28;20410;-85
2023/08/31 00:06:04;;;;;;;12.38;10.80;;;13.90;99.90;;;;;;4992755;28;20011;-83
2023/08/31 00:08:30;;;;;;;12.88;10.10;;;13.90;99.90;;;;;;5007860;28;20025;-85
2023/08/31 00:11:00;;;;;;;11.02;9.32;;;13.90;99.90;;;;;;5009172;28;20038;-84
2023/08/31 00:13:26;;;;;;;14.38;10.07;;;13.90;99.90;;;;;;5003951;28;20026;-84
2023/08/31 00:15:56;;;;;;;9.90;8.90;;;13.80;99.90;;;;;;4998777;28;20088;-85
2023/08/31 00:18:22;;;;;;;10.35;9.25;;;13.80;99.90;;;;;;4994491;28;20472;-85
2023/08/31 00:20:47;;;;;;;10.80;9.18;;;13.80;99.90;;;;;;5003273;28;20056;-83
2023/08/31 00:23:13;;;;;;;10.68;8.30;;;13.80;99.90;;;;;;5002137;28;20243;-84
2023/08/31 00:25:39;;;;;;;10.15;8.20;;;13.80;99.90;;;;;;5000480;28;20429;-85
2023/08/31 00:28:04;;;;;;;10.27;8.73;;;13.70;99.90;;;;;;5002987;28;20049;-84
2023/08/31 00:30:31;;;;;;;11.10;9.18;;;13.70;99.90;;;;;;4990458;28;20050;-84
2023/08/31 00:32:59;;;;;;;10.48;9.13;;;13.70;99.90;;;;;;5001746;28;20404;-85
2023/08/31 00:35:28;;;;;;;8.63;7.72;;;13.70;99.90;;;;;;4991337;28;20026;-83
2023/08/31 00:37:58;;;;;;;10.13;8.88;;;13.70;99.90;;;;;;5006895;28;20048;-84
2023/08/31 00:40:24;;;;;;;8.45;7.40;;;13.70;99.90;;;;;;4996567;28;20091;-85
2023/08/31 00:42:49;;;;;;;10.68;8.55;;;13.70;99.90;;;;;;5001085;28;20112;-86
2023/08/31 00:45:15;;;;;;;9.15;7.93;;;13.70;99.90;;;;;;4999325;28;20766;-85
2023/08/31 00:47:41;;;;;;;9.05;8.10;;;13.70;99.90;;;;;;4997548;28;20023;-85
2023/08/31 00:50:08;;;;;;;7.90;7.07;;;13.70;99.90;;;;;;4987879;28;20031;-85
2023/08/31 00:52:36;;;;;;;8.90;7.43;;;13.70;99.90;;;;;;4994051;28;20026;-85
2023/08/31 00:55:06;;;;;;;9.45;8.40;;;13.70;99.90;;;;;;4996512;28;20026;-84
2023/08/31 00:57:31;;;;;;;8.32;7.53;;;13.70;99.90;;;;;;5011043;28;20026;-82
2023/08/31 00:59:57;;;;;;;8.00;6.63;;;13.70;99.90;;;;;;5018697;28;20015;-84
2023/08/31 01:02:34;;;;;;;12.15;7.63;;;13.70;99.90;;;;;;5007495;28;20106;-84
2023/08/31 01:04:59;;;;;;;8.55;7.30;;;13.70;99.90;;;;;;4994275;28;20034;-85
2023/08/31 01:07:36;;;;;;;8.98;7.38;;;13.70;99.90;;;;;;4990793;28;20065;-85
2023/08/31 01:10:28;;;;;;;7.22;6.53;;;13.60;99.90;;;;;;4992370;28;20469;-85
2023/08/31 01:13:13;;;;;;;8.90;7.65;;;13.60;99.90;;;;;;5010180;28;20026;-84
2023/08/31 01:15:46;;;;;;;10.65;7.70;;;13.60;99.90;;;;;;5011899;28;20105;-83
2023/08/31 01:18:16;;;;;;;8.52;7.55;;;13.50;99.90;;;;;;5004510;28;20030;-86
2023/08/31 01:20:55;;;;;;;8.57;7.13;;;13.50;99.90;;;;;;5004928;28;20060;-84
2023/08/31 01:23:28;;;;;;;9.18;7.00;;;13.50;99.90;;;;;;5004821;28;20042;-85
2023/08/31 01:25:54;;;;;;;8.05;7.25;;;13.50;99.90;;;;;;4998438;28;20057;-85
2023/08/31 01:28:19;;;;;;;9.80;7.40;;;13.40;99.90;;;;;;5000496;28;20652;-85
2023/08/31 01:30:45;;;;;;;7.90;7.10;;;13.40;99.90;;;;;;5001982;28;20038;-85
2023/08/31 01:33:12;;;;;;;9.40;7.72;;;13.40;99.90;;;;;;4996959;28;20027;-84
2023/08/31 01:35:44;;;;;;;9.07;6.97;;;13.40;99.90;;;;;;5005958;28;20716;-84
2023/08/31 01:38:11;;;;;;;7.82;7.03;;;13.30;99.90;;;;;;4989844;28;20043;-85
2023/08/31 01:40:44;;;;;;;9.05;7.07;;;13.30;99.90;;;;;;4999507;28;20109;-84
2023/08/31 01:43:11;;;;;;;10.55;6.85;;;13.30;99.90;;;;;;5005035;28;20026;-85
2023/08/31 01:45:37;;;;;;;9.18;7.25;;;13.20;99.90;;;;;;5008969;28;20030;-84
2023/08/31 01:48:04;;;;;;;7.90;6.50;;;13.20;99.90;;;;;;5009271;28;20018;-85
2023/08/31 01:50:30;;;;;;;7.53;6.82;;;13.10;99.90;;;;;;5000150;28;20679;-85
2023/08/31 01:52:55;;;;;;;9.15;7.43;;;13.20;99.90;;;;;;5006529;28;20026;-85
2023/08/31 01:55:22;;;;;;;8.45;7.45;;;13.20;99.90;;;;;;5002040;28;20030;-84
2023/08/31 01:57:48;;;;;;;8.98;6.13;;;13.10;99.90;;;;;;5017159;28;20018;-86
2023/08/31 02:00:15;;;;;;;9.20;6.95;;;13.10;99.90;;;;;;4998012;28;20053;-85
2023/08/31 02:02:41;;;;;;;8.80;6.88;;;13.10;99.90;;;;;;4999287;28;20141;-85
2023/08/31 02:05:07;;;;;;;7.95;6.82;;;13.10;99.90;;;;;;5005206;28;20057;-83
2023/08/31 02:07:33;;;;;;;9.23;7.10;;;13.00;99.90;;;;;;5001338;28;20027;-85
2023/08/31 02:09:59;;;;;;;7.70;5.95;;;13.00;99.90;;;;;;5018240;28;20281;-86
2023/08/31 02:12:24;;;;;;;8.60;6.72;;;12.90;99.90;;;;;;5005423;28;20027;-85
2023/08/31 02:14:50;;;;;;;7.55;5.95;;;12.80;99.90;;;;;;5005021;28;20026;-84
2023/08/31 02:17:15;;;;;;;7.03;6.18;;;12.80;99.90;;;;;;5011289;28;20021;-84
2023/08/31 02:19:41;;;;;;;8.30;6.53;;;12.80;99.90;;;;;;5001524;28;20033;-84
2023/08/31 02:22:07;;;;;;;7.72;6.43;;;12.70;99.90;;;;;;5003145;28;20038;-84
2023/08/31 02:24:32;;;;;;;6.63;6.03;;;12.70;99.90;;;;;;5001985;28;20053;-85
2023/08/31 02:26:58;;;;;;;10.75;7.00;;;12.70;99.90;;;;;;5018723;28;20026;-86
2023/08/31 02:29:23;;;;;;;7.15;6.15;;;12.70;99.90;;;;;;5010975;28;20567;-85
2023/08/31 02:31:49;;;;;;;6.72;5.97;;;12.60;99.90;;;;;;5003866;28;20116;-85
2023/08/31 02:34:14;;;;;;;6.20;5.45;;;12.60;99.90;;;;;;5015394;28;20041;-82
2023/08/31 08:52:47;;;;;;;2.67;1.45;;;15.70;99.90;;;;;;5013658;28;20101;-85
2023/08/31 08:55:14;;;;;;;1.75;1.65;;;15.70;99.90;;;;;;5013274;28;20069;-86
2023/08/31 08:57:40;;;;;;;3.67;1.40;;;15.60;99.90;;;;;;4998588;28;20088;-86
2023/08/31 09:00:06;;;;;;;2.88;1.30;;;15.60;99.90;;;;;;4997531;28;20105;-86
2023/08/31 09:02:32;;;;;;;1.70;1.60;;;15.50;99.90;;;;;;4996936;28;20100;-85
2023/08/31 09:04:57;;;;;;;2.45;1.50;;;15.50;99.90;;;;;;4987804;28;20070;-86
2023/08/31 09:07:24;;;;;;;2.58;1.50;;;15.50;99.90;;;;;;4998988;28;20027;-85
2023/08/31 09:09:51;;;;;;;1.73;1.63;;;15.60;99.90;;;;;;4998552;28;20033;-85
2023/08/31 09:12:18;;;;;;;3.85;2.15;;;15.70;99.90;;;;;;5002137;28;20388;-86
2023/08/31 09:14:56;;;;;;;1.95;1.35;;;15.80;99.90;;;;;;5005651;28;20477;-87
2023/08/31 09:17:25;;;;;;;3.60;1.77;;;15.90;99.90;;;;;;4999369;28;20056;-87
2023/08/31 09:20:00;;;;;;;2.03;1.80;;;15.90;99.90;;;;;;4990714;28;20649;-86
2023/08/31 09:22:26;;;;;;;2.28;2.08;;;15.90;99.90;;;;;;5010894;28;20610;-86
2023/08/31 09:24:52;;;;;;;4.10;1.48;;;15.80;99.90;;;;;;5006217;28;20062;-85
2023/08/31 09:27:20;;;;;;;2.92;1.88;;;15.70;99.90;;;;;;5009311;28;20120;-86
2023/08/31 09:29:46;;;;;;;2.83;1.85;;;15.60;99.90;;;;;;5006104;28;20026;-86
2023/08/31 09:32:17;;;;;;;2.30;2.10;;;15.50;99.90;;;;;;4996507;28;20046;-85
2023/08/31 09:34:43;;;;;;;3.78;3.13;;;15.40;99.90;;;;;;5001942;28;20049;-86
2023/08/31 09:37:09;;;;;;;3.80;2.45;;;15.30;99.90;;;;;;5007227;28;20037;-87
2023/08/31 09:39:39;;;;;;;3.38;2.05;;;15.30;99.90;;;;;;5028575;28;20022;-87
2023/08/31 09:42:05;;;;;;;4.68;2.25;;;15.30;99.90;;;;;;5019456;28;20014;-84
2023/08/31 09:44:31;;;;;;;3.10;2.22;;;15.20;99.90;;;;;;5015291;28;20065;-87
2023/08/31 09:46:57;;;;;;;5.05;1.65;;;15.20;99.90;;;;;;5000689;28;20030;-86
2023/08/31 09:49:24;;;;;;;3.38;2.20;;;15.10;99.90;;;;;;5009475;28;20800;-85
2023/08/31 09:51:50;;;;;;;3.38;2.00;;;15.20;99.90;;;;;;5001419;28;20519;-86
2023/08/31 09:54:21;;;;;;;2.60;1.98;;;15.30;99.90;;;;;;5000486;28;20041;-86
2023/08/31 09:56:47;;;;;;;2.80;2.13;;;15.50;99.90;;;;;;4994532;28;20018;-86
2023/08/31 09:59:15;;;;;;;2.50;2.08;;;15.80;99.90;;;;;;5004070;28;20152;-86
2023/08/31 10:01:42;;;;;;;3.00;1.70;;;15.90;99.90;;;;;;4991734;28;20512;-86
2023/08/31 10:04:12;;;;;;;2.85;1.73;;;15.90;99.90;;;;;;4992602;28;20441;-87
2023/08/31 10:06:42;;;;;;;4.63;1.70;;;15.80;99.90;;;;;;5007097;28;20033;-86
2023/08/31 10:09:11;;;;;;;2.00;1.45;;;15.80;99.90;;;;;;5000817;28;20018;-86
2023/08/31 10:11:38;;;;;;;2.75;1.60;;;15.60;99.90;;;;;;5000594;28;20125;-85
2023/08/31 10:14:04;;;;;;;2.75;2.00;;;15.60;99.90;;;;;;5001724;28;20105;-86
2023/08/31 10:16:30;;;;;;;3.85;2.13;;;15.60;99.90;;;;;;4993714;28;20018;-86
2023/08/31 10:18:56;;;;;;;4.03;2.25;;;15.70;99.90;;;;;;5002940;28;20022;-86
2023/08/31 10:21:22;;;;;;;2.10;1.75;;;15.70;99.90;;;;;;4994165;28;20084;-83
2023/08/31 10:23:49;;;;;;;2.10;1.90;;;15.90;99.90;;;;;;5008756;28;20028;-86
2023/08/31 10:26:29;;;;;;;3.67;1.90;;;16.00;99.90;;;;;;5009007;28;20484;-86
2023/08/31 10:28:55;;;;;;;3.50;1.80;;;16.20;99.90;;;;;;4991419;28;20026;-85
2023/08/31 10:31:24;;;;;;;3.72;1.70;;;16.30;99.90;;;;;;4998118;28;20034;-84
2023/08/31 10:33:58;;;;;;;3.65;1.90;;;16.40;99.90;;;;;;5010187;28;20026;-86
2023/08/31 10:36:39;;;;;;;2.72;1.90;;;16.40;99.90;;;;;;5008522;28;20061;-87
2023/08/31 10:39:21;;;;;;;1.92;1.73;;;16.40;99.90;;;;;;4997240;28;20112;-86
2023/08/31 10:41:54;;;;;;;1.92;1.63;;;16.30;99.90;;;;;;4997640;28;20022;-85
2023/08/31 10:44:22;;;;;;;4.68;1.63;;;16.20;99.90;;;;;;4997428;28;20065;-85
2023/08/31 10:46:49;;;;;;;1.80;1.60;;;16.30;99.90;;;;;;4996807;28;20542;-85
2023/08/31 10:49:17;;;;;;;2.05;1.30;;;16.40;99.90;;;;;;4999460;28;20022;-86
2023/08/31 10:51:45;;;;;;;3.65;1.58;;;16.50;99.90;;;;;;5012828;28;20049;-85
2023/08/31 10:54:15;;;;;;;2.15;2.00;;;16.70;99.90;;;;;;5011449;28;20616;-86
2023/08/31 10:57:09;;;;;;;3.50;1.52;;;16.70;99.90;;;;;;5012868;28;20022;-85
2023/08/31 10:59:47;;;;;;;1.95;1.80;;;16.60;99.90;;;;;;5004391;28;20034;-84
2023/08/31 11:02:34;;;;;;;2.10;1.70;;;16.50;99.90;;;;;;5008025;28;20192;-86
2023/08/31 11:05:00;;;;;;;2.03;1.65;;;16.30;99.90;;;;;;4997619;28;20014;-86
2023/08/31 11:07:27;;;;;;;2.42;1.90;;;16.20;99.90;;;;;;5009799;28;20026;-85
2023/08/31 11:10:05;;;;;;;2.35;1.67;;;16.10;99.90;;;;;;5002217;28;20098;-85
2023/08/31 11:12:32;;;;;;;3.28;1.85;;;16.10;99.90;;;;;;5002667;28;20182;-86
2023/08/31 11:14:57;;;;;;;2.35;1.60;;;16.20;99.90;;;;;;5007836;28;20022;-84
2023/08/31 11:17:24;;;;;;;1.52;1.20;;;16.30;99.90;;;;;;5004351;28;20034;-84
2023/08/31 11:19:49;;;;;;;1.77;1.33;;;16.50;99.90;;;;;;4996465;28;20025;-84
2023/08/31 11:22:15;;;;;;;2.38;1.30;;;16.60;99.90;;;;;;4994211;28;20462;-83
2023/08/31 11:24:41;;;;;;;1.92;1.00;;;16.80;99.90;;;;;;4994494;28;20027;-84
2023/08/31 11:27:10;;;;;;;1.75;0.95;;;16.90;99.90;;;;;;4999589;28;20053;-84
2023/08/31 11:29:44;;;;;;;1.17;1.00;;;17.00;99.90;;;;;;5013214;28;20030;-85
2023/08/31 11:32:10;;;;;;;1.60;1.00;;;17.00;99.90;;;;;;4997807;28;20122;-85
2023/08/31 11:34:41;;;;;;;1.48;0.82;;;17.00;99.90;;;;;;5016025;28;20034;-84
2023/08/31 11:37:07;;;;;;;3.10;1.00;;;17.00;99.90;;;;;;4998928;28;20026;-85
2023/08/31 11:39:33;;;;;;;2.15;1.02;;;17.00;99.90;;;;;;4993558;28;20030;-86
2023/08/31 11:41:59;;;;;;;2.17;0.80;;;16.90;99.90;;;;;;5002757;28;20716;-84
2023/08/31 11:44:25;;;;;;;2.35;1.20;;;16.90;99.90;;;;;;5007216;28;20034;-84
2023/08/31 11:46:51;;;;;;;3.03;1.08;;;16.80;99.90;;;;;;5003805;28;20026;-84
2023/08/31 11:49:18;;;;;;;1.00;0.88;;;16.80;99.90;;;;;;4998007;28;20046;-84
2023/08/31 11:51:44;;;;;;;1.13;1.05;;;16.90;99.90;;;;;;4999814;28;20026;-85
2023/08/31 11:54:10;;;;;;;2.17;0.90;;;16.90;99.90;;;;;;5002084;28;20030;-84
2023/08/31 11:56:48;;;;;;;2.17;1.25;;;16.90;99.90;;;;;;4996164;28;20023;-84
2023/08/31 11:59:18;;;;;;;1.80;0.75;;;16.80;99.90;;;;;;4992472;28;20034;-84
2023/08/31 12:01:47;;;;;;;2.63;1.48;;;16.80;99.90;;;;;;5002286;28;21370;-82
2023/08/31 12:04:14;;;;;;;1.38;1.00;;;16.80;99.90;;;;;;5002771;28;20108;-84
2023/08/31 12:06:41;;;;;;;1.77;1.00;;;16.80;99.90;;;;;;5001567;28;20030;-84
2023/08/31 12:09:08;;;;;;;2.40;1.10;;;16.70;99.90;;;;;;4998622;28;20392;-84
2023/08/31 12:11:34;;;;;;;1.63;1.05;;;16.60;99.90;;;;;;5009515;28;20117;-85
2023/08/31 12:14:01;;;;;;;2.65;0.82;;;16.60;99.90;;;;;;5006606;28;20052;-85
2023/08/31 12:16:36;;;;;;;1.35;0.70;;;16.50;99.90;;;;;;4996391;28;20057;-85
2023/08/31 12:19:06;;;;;;;1.07;0.60;;;16.40;99.90;;;;;;5008691;28;20030;-82
2023/08/31 12:21:32;;;;;;;1.45;0.85;;;16.40;99.90;;;;;;4998402;28;20037;-82
2023/08/31 12:24:22;;;;;;;2.55;0.77;;;16.40;99.90;;;;;;5002458;28;20045;-83
2023/08/31 12:26:50;;;;;;;2.75;0.77;;;16.50;99.90;;;;;;5006530;28;20034;-82
2023/08/31 12:29:16;;;;;;;1.67;0.55;;;16.40;99.90;;;;;;5010911;28;20033;-82
2023/08/31 12:31:43;;;;;;;1.65;0.70;;;16.50;99.90;;;;;;5012261;28;20350;-81
2023/08/31 12:34:09;;;;;;;1.30;0.55;;;16.50;99.90;;;;;;5010283;28;20046;-82
2023/08/31 12:36:36;;;;;;;1.77;0.50;;;16.40;99.90;;;;;;4999299;28;20042;-80
2023/08/31 12:39:06;;;;;;;0.40;0.20;;;16.40;99.90;;;;;;4996188;28;20026;-82
2023/08/31 12:41:31;;;;;;;0.20;0.20;;;16.40;99.90;;;;;;5002861;28;20082;-83
2023/08/31 12:43:57;;;;;;;1.65;0.32;;;16.30;99.90;;;;;;5001506;28;20057;-81
2023/08/31 12:46:23;;;;;;;0.40;0.20;;;16.20;99.90;;;;;;5007444;28;20026;-82
2023/08/31 12:48:49;;;;;;;1.35;0.45;;;16.20;99.90;;;;;;4995514;28;20025;-82
2023/08/31 12:51:16;;;;;;;2.85;0.30;;;16.00;99.90;;;;;;5007284;28;20125;-80
2023/08/31 12:53:42;;;;;;;0.95;0.30;;;16.00;99.90;;;;;;4999466;28;20022;-82
2023/08/31 12:56:07;;;;;;;2.30;0.40;;;15.90;99.90;;;;;;5004558;28;20036;-81
2023/08/31 12:58:33;;;;;;;1.42;0.30;;;15.80;99.90;;;;;;4999951;28;20027;-81
2023/08/31 13:00:59;;;;;;;0.57;0.40;;;15.80;99.90;;;;;;4996993;28;20061;-82
2023/08/31 13:03:25;;;;;;;0.93;0.30;;;15.80;99.90;;;;;;4986367;28;20027;-83
2023/08/31 13:05:50;;;;;;;0.90;0.40;;;15.60;99.90;;;;;;4997543;28;20046;-84
2023/08/31 13:08:16;;;;;;;0.93;0.32;;;15.40;99.90;;;;;;4997113;28;20070;-84
2023/08/31 13:10:42;;;;;;;0.85;0.30;;;15.50;99.90;;;;;;5018132;28;20036;-85
2023/08/31 13:13:08;;;;;;;0.30;0.22;;;15.40;99.90;;;;;;5021677;28;20014;-82
2023/08/31 13:15:34;;;;;;;1.13;0.40;;;15.40;99.90;;;;;;5011947;28;20022;-83
2023/08/31 13:18:00;;;;;;;0.57;0.40;;;15.50;99.90;;;;;;5018422;28;20018;-84
2023/08/31 13:20:27;;;;;;;0.47;0.35;;;15.60;99.90;;;;;;5011617;28;20109;-84
2023/08/31 13:22:52;;;;;;;0.82;0.30;;;15.70;99.90;;;;;;5015919;28;20028;-85
2023/08/31 13:25:18;;;;;;;0.30;0.20;;;15.70;99.90;;;;;;5018607;28;20093;-84
2023/08/31 13:27:44;;;;;;;0.80;0.60;;;15.70;99.90;;;;;;5024716;28;20010;-83
2023/08/31 13:30:12;;;;;;;0.68;0.43;;;15.80;99.90;;;;;;5010539;28;20362;-84
2023/08/31 13:32:38;;;;;;;0.90;0.30;;;15.80;99.90;;;;;;5014167;28;20014;-83
2023/08/31 13:35:07;;;;;;;1.10;0.60;;;15.80;99.90;;;;;;5013938;28;20037;-84
2023/08/31 13:37:33;;;;;;;0.57;0.47;;;15.80;99.90;;;;;;5017219;28;20113;-84
2023/08/31 13:40:00;;;;;;;1.48;0.55;;;15.90;99.90;;;;;;5000988;28;20089;-84
2023/08/31 13:42:26;;;;;;;0.57;0.40;;;16.00;99.90;;;;;;5012975;28;20010;-84
2023/08/31 13:44:51;;;;;;;0.50;0.38;;;16.10;99.90;;;;;;5011897;28;20166;-82
2023/08/31 13:47:17;;;;;;;0.60;0.30;;;16.20;99.90;;;;;;5010923;28;20026;-84
2023/08/31 13:49:42;;;;;;;0.65;0.35;;;16.30;99.90;;;;;;5018774;28;20080;-85
2023/08/31 13:52:10;;;;;;;0.60;0.43;;;16.50;99.90;;;;;;5016973;28;20033;-83
2023/08/31 13:54:36;;;;;;;0.43;0.30;;;16.50;99.90;;;;;;5001800;28;20038;-84
2023/08/31 13:57:02;;;;;;;0.32;0.30;;;16.60;99.90;;;;;;5014142;28;20049;-85
2023/08/31 13:59:28;;;;;;;1.17;0.30;;;16.70;99.90;;;;;;5008938;28;20081;-85
2023/08/31 14:01:54;;;;;;;0.52;0.43;;;16.90;99.90;;;;;;5005017;28;20026;-84
2023/08/31 14:04:20;;;;;;;0.77;0.40;;;17.10;99.90;;;;;;5004912;28;20097;-85
2023/08/31 14:06:45;;;;;;;0.95;0.40;;;17.30;99.90;;;;;;5000687;28;20053;-84
2023/08/31 14:09:11;;;;;;;0.75;0.47;;;17.40;99.90;;;;;;5013374;28;20019;-83
2023/08/31 14:11:37;;;;;;;0.32;0.32;;;17.40;99.90;;;;;;5016510;28;20033;-83
2023/08/31 14:14:11;;;;;;;1.05;0.38;;;17.50;99.90;;;;;;5024615;28;20044;-83
2023/08/31 14:16:37;;;;;;;1.52;0.50;;;17.50;99.90;;;;;;5019354;28;20018;-83
2023/08/31 14:19:03;;;;;;;1.63;0.40;;;17.40;99.90;;;;;;5005056;28;20034;-85
2023/08/31 14:21:29;;;;;;;1.65;0.50;;;17.40;99.90;;;;;;5011314;28;20323;-85
2023/08/31 14:23:55;;;;;;;0.60;0.40;;;17.30;99.90;;;;;;5015471;28;20507;-84
2023/08/31 14:26:24;;;;;;;1.25;0.70;;;17.30;99.90;;;;;;5016779;28;20022;-85
2023/08/31 14:28:51;;;;;;;1.73;0.25;;;17.30;99.90;;;;;;5006074;28;20018;-85
2023/08/31 14:31:17;;;;;;;0.30;0.30;;;17.10;99.90;;;;;;5010445;28;20038;-86
2023/08/31 14:33:43;;;;;;;1.50;0.43;;;17.10;99.90;;;;;;5013115;28;20038;-85
2023/08/31 14:36:08;;;;;;;1.73;0.40;;;16.90;99.90;;;;;;5019800;28;20022;-84
2023/08/31 14:38:34;;;;;;;2.30;0.60;;;16.90;99.90;;;;;;5014675;28;20053;-85
2023/08/31 14:40:59;;;;;;;1.30;0.50;;;16.90;99.90;;;;;;5000367;28;20054;-82
2023/08/31 14:43:25;;;;;;;1.25;0.47;;;16.90;99.90;;;;;;5021924;28;20276;-86
2023/08/31 14:45:51;;;;;;;0.63;0.63;;;16.80;99.90;;;;;;5020244;28;20014;-86
2023/08/31 14:48:16;;;;;;;0.65;0.40;;;16.80;99.90;;;;;;5024198;28;20021;-86
2023/08/31 14:50:45;;;;;;;0.50;0.50;;;16.90;99.90;;;;;;5020045;28;20034;-85
2023/08/31 14:53:11;;;;;;;1.13;0.52;;;17.00;99.90;;;;;;5011501;28;20022;-85
2023/08/31 14:55:37;;;;;;;1.70;0.60;;;17.20;99.90;;;;;;5017122;28;20030;-85
2023/08/31 14:58:06;;;;;;;4.03;0.70;;;17.30;99.90;;;;;;5004761;28;20090;-85
2023/08/31 15:00:31;;;;;;;0.90;0.47;;;17.30;99.90;;;;;;5007014;28;20065;-84
2023/08/31 15:02:57;;;;;;;3.03;0.60;;;17.40;99.90;;;;;;5004742;28;20572;-86
2023/08/31 15:05:25;;;;;;;0.45;0.40;;;17.30;99.90;;;;;;5014741;28;20040;-84
2023/08/31 15:07:51;;;;;;;1.75;0.80;;;17.30;99.90;;;;;;5013159;28;20026;-86
2023/08/31 15:10:18;;;;;;;1.00;0.47;;;17.10;99.90;;;;;;5021162;28;20311;-85
2023/08/31 15:12:43;;;;;;;1.38;0.63;;;17.00;99.90;;;;;;5013727;28;20034;-84
2023/08/31 15:15:09;;;;;;;0.60;0.60;;;17.00;99.90;;;;;;5020104;28;20109;-85
2023/08/31 15:17:35;;;;;;;1.88;0.22;;;16.90;99.90;;;;;;5011855;28;20057;-84
2023/08/31 15:20:01;;;;;;;0.40;0.40;;;16.90;99.90;;;;;;5021292;28;20049;-85
2023/08/31 15:22:27;;;;;;;0.77;0.50;;;16.90;99.90;;;;;;5010462;28;20279;-85
2023/08/31 15:24:53;;;;;;;2.30;0.50;;;16.80;99.90;;;;;;5024135;28;20026;-83
2023/08/31 15:27:19;;;;;;;0.55;0.45;;;16.90;99.90;;;;;;5024201;28;20029;-85
2023/08/31 15:29:45;;;;;;;1.27;0.75;;;16.80;99.90;;;;;;5020675;28;20031;-86
2023/08/31 15:32:11;;;;;;;1.38;0.43;;;16.90;99.90;;;;;;5019514;28;20032;-82
2023/08/31 15:34:36;;;;;;;1.65;0.68;;;16.80;99.90;;;;;;5022237;28;20029;-84
2023/08/31 15:37:02;;;;;;;3.33;0.80;;;16.80;99.90;;;;;;5017062;28;20027;-85
2023/08/31 15:39:28;;;;;;;1.08;0.95;;;16.80;99.90;;;;;;5026620;28;20062;-84
2023/08/31 15:41:53;;;;;;;1.25;0.77;;;16.70;99.90;;;;;;5023803;28;20064;-82
2023/08/31 15:44:19;;;;;;;1.85;0.85;;;16.70;99.90;;;;;;5018708;28;20098;-85
2023/08/31 15:46:45;;;;;;;0.80;0.40;;;16.70;99.90;;;;;;5013907;28;20018;-84
2023/08/31 15:49:11;;;;;;;0.52;0.50;;;16.60;99.90;;;;;;5027225;28;20013;-85
2023/08/31 15:51:36;;;;;;;0.88;0.38;;;16.70;99.90;;;;;;5022142;28;20038;-84
2023/08/31 15:54:04;;;;;;;2.25;0.60;;;16.70;99.90;;;;;;5020387;28;20015;-84
2023/08/31 15:56:30;;;;;;;0.77;0.40;;;16.70;99.90;;;;;;5018663;28;20041;-85
2023/08/31 15:58:55;;;;;;;0.98;0.50;;;16.60;99.90;;;;;;5020981;28;20026;-85
2023/08/31 16:01:21;;;;;;;0.73;0.45;;;16.60;99.90;;;;;;5017764;28;20060;-85
2023/08/31 16:03:46;;;;;;;0.80;0.40;;;16.60;99.90;;;;;;5010693;28;20029;-82
2023/08/31 16:06:13;;;;;;;1.90;1.15;;;16.60;99.90;;;;;;5018732;28;20048;-86
2023/08/31 16:08:38;;;;;;;1.08;0.68;;;16.50;99.90;;;;;;5021892;28;20018;-85
2023/08/31 16:11:04;;;;;;;1.77;0.47;;;16.40;99.90;;;;;;5012319;28;20022;-86
2023/08/31 16:13:30;;;;;;;1.17;0.40;;;16.40;99.90;;;;;;5014469;28;20070;-85
2023/08/31 16:15:56;;;;;;;1.05;0.60;;;16.40;99.90;;;;;;5013797;28;20022;-84
2023/08/31 16:18:21;;;;;;;0.85;0.47;;;16.40;99.90;;;;;;5007919;28;20033;-85
2023/08/31 16:20:47;;;;;;;0.52;0.30;;;16.40;99.90;;;;;;5021943;28;20489;-85
2023/08/31 16:23:13;;;;;;;0.75;0.70;;;16.30;99.90;;;;;;5027242;28;20056;-86
2023/08/31 16:25:39;;;;;;;0.70;0.50;;;16.30;99.90;;;;;;5020542;28;20049;-85
2023/08/31 16:28:05;;;;;;;0.63;0.50;;;16.30;99.90;;;;;;5013747;28;20087;-85
2023/08/31 16:30:30;;;;;;;2.75;0.70;;;16.30;99.90;;;;;;5024102;28;20045;-87
2023/08/31 16:32:56;;;;;;;0.60;0.50;;;16.30;99.90;;;;;;5011607;28;20437;-84
2023/08/31 16:35:22;;;;;;;1.33;0.68;;;16.30;99.90;;;;;;5005982;28;20076;-86
2023/08/31 16:37:48;;;;;;;2.53;0.85;;;16.30;99.90;;;;;;5015465;28;20445;-83
2023/08/31 16:40:14;;;;;;;0.73;0.73;;;16.20;99.90;;;;;;5020519;28;20116;-86
2023/08/31 16:42:41;;;;;;;0.65;0.50;;;16.20;99.90;;;;;;5012432;28;20026;-86
2023/08/31 16:45:07;;;;;;;1.55;0.68;;;16.10;99.90;;;;;;5017781;28;20014;-86
2023/08/31 16:47:37;;;;;;;1.00;0.63;;;16.20;99.90;;;;;;5020844;28;20451;-86
2023/08/31 16:50:03;;;;;;;0.40;0.40;;;16.10;99.90;;;;;;5006273;28;20026;-86
2023/08/31 16:52:29;;;;;;;0.47;0.47;;;16.20;99.90;;;;;;5008604;28;20018;-86
2023/08/31 16:54:55;;;;;;;0.77;0.57;;;16.10;99.90;;;;;;5018053;28;20061;-86
2023/08/31 16:57:20;;;;;;;2.80;0.95;;;16.10;99.90;;;;;;5004399;28;20054;-85
2023/08/31 16:59:46;;;;;;;2.92;0.75;;;16.20;99.90;;;;;;5009765;28;20038;-83
2023/08/31 17:02:12;;;;;;;2.05;0.50;;;16.20;99.90;;;;;;5011792;28;20044;-86
2023/08/31 17:04:38;;;;;;;2.10;0.70;;;16.20;99.90;;;;;;5004839;28;20879;-86
2023/08/31 17:07:03;;;;;;;1.40;0.80;;;16.20;99.90;;;;;;5010429;28;20036;-86
2023/08/31 17:09:29;;;;;;;1.27;0.65;;;16.20;99.90;;;;;;5013426;28;20054;-86
2023/08/31 17:11:58;;;;;;;0.63;0.52;;;16.20;99.90;;;;;;5014982;28;20022;-87
2023/08/31 17:14:23;;;;;;;0.73;0.60;;;16.20;99.90;;;;;;5016597;28;20053;-83
2023/08/31 17:16:49;;;;;;;2.72;0.60;;;16.20;99.90;;;;;;5011195;28;20022;-85
2023/08/31 17:19:15;;;;;;;1.48;0.75;;;16.10;99.90;;;;;;5007078;28;20026;-86
2023/08/31 17:21:40;;;;;;;1.20;0.80;;;16.10;99.90;;;;;;5017713;28;20114;-84
2023/08/31 17:24:06;;;;;;;1.70;1.15;;;16.10;99.90;;;;;;5016265;28;20119;-86
2023/08/31 17:26:32;;;;;;;1.65;1.27;;;16.10;99.90;;;;;;5008256;28;20029;-87
2023/08/31 17:28:57;;;;;;;1.10;0.60;;;16.00;99.90;;;;;;5009080;28;20144;-86
2023/08/31 17:31:24;;;;;;;1.05;0.70;;;16.00;99.90;;;;;;4994194;28;20417;-87
2023/08/31 17:33:51;;;;;;;0.60;0.50;;;16.00;99.90;;;;;;4989564;28;20085;-86
2023/08/31 17:36:20;;;;;;;3.22;1.00;;;15.90;99.90;;;;;;4997362;28;20023;-85
2023/08/31 17:38:46;;;;;;;1.65;0.70;;;15.80;99.90;;;;;;4996211;28;20174;-85
2023/08/31 17:41:12;;;;;;;0.40;0.40;;;15.80;99.90;;;;;;4995910;28;20018;-85
2023/08/31 17:43:38;;;;;;;2.25;0.73;;;15.80;99.90;;;;;;5014015;28;20121;-86
2023/08/31 17:46:03;;;;;;;1.23;0.88;;;15.70;99.90;;;;;;4992974;28;20121;-87
2023/08/31 17:48:35;;;;;;;0.90;0.68;;;15.70;99.90;;;;;;5000510;28;20023;-87
2023/08/31 17:51:00;;;;;;;1.50;0.90;;;15.60;99.90;;;;;;5000636;28;20022;-87
2023/08/31 17:53:26;;;;;;;3.17;0.75;;;15.60;99.90;;;;;;5009264;28;20393;-86
2023/08/31 17:55:52;;;;;;;1.27;0.50;;;15.50;99.90;;;;;;5006314;28;20080;-86
2023/08/31 17:58:17;;;;;;;1.88;0.88;;;15.40;99.90;;;;;;5004038;28;20022;-85
2023/08/31 18:00:43;;;;;;;0.68;0.43;;;15.30;99.90;;;;;;5011437;28;20485;-86
2023/08/31 18:03:09;;;;;;;10.57;6.20;;;15.30;99.90;;;;;;4996383;28;20388;-86
2023/08/31 18:05:35;;;;;;;5.63;3.53;;;15.20;99.90;;;;;;5006129;28;20022;-86
2023/08/31 18:08:00;;;;;;;3.42;2.75;;;15.20;99.90;;;;;;5015355;28;20160;-86
2023/08/31 18:10:26;;;;;;;6.68;4.15;;;15.10;99.90;;;;;;4999523;28;20041;-86
2023/08/31 18:12:53;;;;;;;6.55;3.92;;;15.10;99.90;;;;;;5011546;28;20533;-85
2023/08/31 18:15:19;;;;;;;6.20;4.55;;;15.00;99.90;;;;;;5009239;28;20029;-86
2023/08/31 18:17:44;;;;;;;1.52;1.40;;;15.00;99.90;;;;;;5017113;28;20026;-87
2023/08/31 18:20:10;;;;;;;3.13;1.45;;;14.90;99.90;;;;;;5005515;28;20026;-87
2023/08/31 18:22:36;;;;;;;1.02;0.88;;;14.80;99.90;;;;;;4992616;28;20561;-87
2023/08/31 18:25:03;;;;;;;1.55;1.00;;;14.80;99.90;;;;;;5005786;28;20061;-87
2023/08/31 18:27:29;;;;;;;0.65;0.60;;;14.70;99.90;;;;;;4994806;28;20034;-86
2023/08/31 18:29:55;;;;;;;0.90;0.70;;;14.70;99.90;;;;;;4997705;28;20023;-87
2023/08/31 18:32:21;;;;;;;1.20;0.82;;;14.60;99.90;;;;;;5004784;28;20757;-87
2023/08/31 18:34:51;;;;;;;1.42;0.60;;;14.60;99.90;;;;;;5011191;28;20030;-87
2023/08/31 18:37:17;;;;;;;1.90;1.02;;;14.50;99.90;;;;;;5004382;28;20026;-87
2023/08/31 18:39:43;;;;;;;1.20;0.85;;;14.50;99.90;;;;;;5019556;28;20045;-87
2023/08/31 18:42:09;;;;;;;1.00;0.90;;;14.40;99.90;;;;;;5018518;28;20034;-87
2023/08/31 18:44:34;;;;;;;1.92;0.60;;;14.40;99.90;;;;;;5022557;28;20025;-87
2023/08/31 18:47:00;;;;;;;0.68;0.65;;;14.30;99.90;;;;;;5003662;28;20025;-86
2023/08/31 18:49:26;;;;;;;1.40;0.80;;;14.30;99.90;;;;;;5012081;28;20057;-87
2023/08/31 18:51:52;;;;;;;1.42;0.70;;;14.20;99.90;;;;;;5007669;28;20045;-86
2023/08/31 18:54:18;;;;;;;0.70;0.68;;;14.20;99.90;;;;;;5005644;28;20052;-86
2023/08/31 18:56:47;;;;;;;1.42;0.70;;;14.20;99.90;;;;;;5019282;28;20034;-86
2023/08/31 18:59:12;;;;;;;0.60;0.60;;;14.10;99.90;;;;;;5016431;28;20030;-86
2023/08/31 19:01:38;;;;;;;1.58;0.90;;;14.10;99.90;;;;;;5003495;28;20046;-85